SAVC

General E. Mosconi Airport

Comodoro Rivadavia, Argentina
TAF SAVC 221100Z 2212/2312 29020KT CAVOK TX26/2119Z TN13/2310 BECMG 2215/2218 25025G35KT 9999 FEW035 SCT060 BECMG 2223/2312 27015KT
Issued Valid From Valid To
Jan-22 @ 11:00 UTC
(6 hours ago)
Jan-22 @ 12:00 UTC
(5 hours ago)
Jan-23 @ 12:00 UTC
(in 19 hours)
Expired Click to View Jan-22 @ 12:00 to Jan-22 @ 15:00
TAF SAVC 221100Z 2212/2312 29020KT CAVOK TX26/2119Z TN13/2310
Wind Visibility Clouds
290° at 20 knots 10,000+ meters
  • No significant clouds
Becoming Jan-22 @ 15:00 to Jan-22 @ 23:00
BECMG 2215/2218 25025G35KT 9999 FEW035 SCT060
Wind Visibility Clouds
250° at 25 knots
 Gusting to 35 knots
10,000+ meters
  • Few at 3,500' AGL
  • Scattered at 6,000' AGL
Becoming Jan-22 @ 23:00 to Jan-23 @ 12:00
BECMG 2223/2312 27015KT
Wind Visibility Clouds
270° at 15 knots 10,000+ meters
  • Few at 3,500' AGL
  • Scattered at 6,000' AGL
TAF SAVC 221100Z 2212/2312 29020KT CAVOK TX26/2119Z TN13/2310 BECMG 2215/2218 25025G35KT 9999 FEW035 SCT060 BECMG 2223/2312 27015KT
Issued Jan-22 @ 11:00 UTC
(6 hours ago)
Valid From Jan-22 @ 12:00 UTC
(5 hours ago)
Valid To Jan-23 @ 12:00 UTC
(in 19 hours)
Jan-22 @ 12:00 - Jan-22 @ 15:00
Wind Visibility
290° at 20 knots 10,000+ meters
Clouds
  • No significant clouds
Becoming Jan-22 @ 15:00 - Jan-22 @ 23:00
Wind Visibility
250° at 25 knots
 Gusting to 35 knots
10,000+ meters
Clouds
  • Few at 3,500' AGL
  • Scattered at 6,000' AGL
Becoming Jan-22 @ 23:00 - Jan-23 @ 12:00
Wind Visibility
270° at 15 knots 10,000+ meters
Clouds
  • Few at 3,500' AGL
  • Scattered at 6,000' AGL